Flight Track Log - Related Links

Times and Time Zones

All times are in EDT time to prevent confusion due to time zone crossing. See the DKT1592 flight status page for this flight to view local times or setup timezone preferences in your user account.

Time Position Orientation Groundspeed Altitude Reporting Facility
EDT Latitude Longitude Course Direction KTS MPH feet Rate Location/Type
Fri 07:57:21 AM 43.6108 -96.7667 326° Northwest 162 186 2,500  Level Minneapolis Center
Fri 07:58:22 AM 43.6581 -96.8108 326° Northwest 165 190 4,200 1,230 Climbing Minneapolis Center
Fri 07:59:23 AM 43.7036 -96.8494 329° Northwest 176 203 5,000 1,033 Climbing Minneapolis Center
Fri 08:00:24 AM 43.7531 -96.8936 327° Northwest 192 221 6,300 1,279 Climbing Minneapolis Center
Fri 08:01:25 AM 43.8014 -96.9344 329° Northwest 200 230 7,600 1,171 Climbing Minneapolis Center
Fri 08:02:27 AM 43.8467 -96.9753 327° Northwest 200 230 8,700 927 Climbing Minneapolis Center
Fri 08:03:28 AM 43.8903 -97.0164 326° Northwest 197 227 9,500 836 Climbing Minneapolis Center
Fri 08:04:29 AM 43.9358 -97.0592 326° Northwest 196 226 10,400 787 Climbing Minneapolis Center
Fri 08:05:30 AM 43.9822 -97.1011 327° Northwest 196 226 11,100 639 Climbing Minneapolis Center
Fri 08:06:31 AM 44.0281 -97.1472 324° Northwest 199 229 11,700 639 Climbing Minneapolis Center
Fri 08:07:32 AM 44.0758 -97.1914 326° Northwest 203 234 12,400 780 Climbing Minneapolis Center
Fri 08:08:34 AM 44.1231 -97.2350 326° Northwest 203 234 13,300 732 Climbing Minneapolis Center
Fri 08:09:35 AM 44.1686 -97.2781 326° Northwest 203 234 13,900 639 Climbing Minneapolis Center
Fri 08:10:36 AM 44.2242 -97.3292 327° Northwest 203 234 14,600 639 Climbing Minneapolis Center
Fri 08:11:37 AM 44.2714 -97.3739 326° Northwest 203 234 15,200 488 Climbing Minneapolis Center
Fri 08:12:39 AM 44.3208 -97.4158 329° Northwest 203 234 15,600 390 Climbing Minneapolis Center
Fri 08:13:40 AM 44.3692 -97.4608 326° Northwest 204 235 16,000 197 Climbing Minneapolis Center
Fri 08:14:41 AM 44.4181 -97.5064 326° Northwest 207 238 16,000  Level Minneapolis Center
Fri 08:15:43 AM 44.4694 -97.5511 328° Northwest 212 244 16,000  Level Minneapolis Center
Fri 08:16:44 AM 44.5200 -97.5972 327° Northwest 214 246 16,000  Level Minneapolis Center
Fri 08:17:45 AM 44.5708 -97.6461 326° Northwest 216 249 16,000  Level Minneapolis Center
Fri 08:18:47 AM 44.6219 -97.6925 327° Northwest 217 250 16,000  Level Minneapolis Center
Fri 08:19:48 AM 44.6736 -97.7411 326° Northwest 218 251 16,000  Level Minneapolis Center
Fri 08:20:49 AM 44.7367 -97.7983 327° Northwest 221 254 16,000  Level Minneapolis Center
Fri 08:21:51 AM 44.7886 -97.8483 326° Northwest 222 255 16,000  Level Minneapolis Center
Fri 08:22:52 AM 44.8403 -97.8958 327° Northwest 222 255 16,000  Level Minneapolis Center
Fri 08:23:54 AM 44.8936 -97.9447 327° Northwest 223 257 16,000  Level Minneapolis Center
Fri 08:24:55 AM 44.9458 -97.9939 326° Northwest 224 258 16,000  Level Minneapolis Center
Fri 08:25:57 AM 44.9972 -98.0444 325° Northwest 224 258 16,000  Level Minneapolis Center
Fri 08:26:58 AM 45.0553 -98.0994 326° Northwest 225 259 16,000  Level Minneapolis Center
Fri 08:27:59 AM 45.1069 -98.1481 326° Northwest 225 259 16,000  Level Minneapolis Center
Fri 08:29:01 AM 45.1617 -98.1961 328° Northwest 226 260 16,000  Level Minneapolis Center
Fri 08:30:02 AM 45.2156 -98.2456 327° Northwest 229 264 16,000  Level Minneapolis Center
Fri 08:31:04 AM 45.2692 -98.2939 328° Northwest 229 264 16,000  Level Minneapolis Center
Fri 08:32:05 AM 45.3222 -98.3417 328° Northwest 229 264 16,000  Level Minneapolis Center
Fri 08:33:07 AM 45.3858 -98.4006 327° Northwest 229 264 16,000  Level Minneapolis Center
Fri 08:34:08 AM 45.4392 -98.4503 327° Northwest 229 264 16,000  Level Minneapolis Center
Fri 08:35:10 AM 45.4925 -98.4997 327° Northwest 229 264 16,000  Level Minneapolis Center
Fri 08:36:11 AM 45.5450 -98.5506 326° Northwest 229 264 16,000  Level Minneapolis Center
Fri 08:37:13 AM 45.5992 -98.6025 326° Northwest 230 265 16,000  Level Minneapolis Center
Fri 08:38:15 AM 45.6531 -98.6558 325° Northwest 234 269 16,000  Level Minneapolis Center
Fri 08:39:16 AM 45.7047 -98.7042 327° Northwest 229 264 16,000 49 Level Minneapolis Center
Fri 08:40:18 AM 45.7683 -98.7628 327° Northwest 228 262 16,100 49 Climbing Minneapolis Center
Fri 08:41:19 AM 45.8228 -98.8117 328° Northwest 228 262 16,100  Level Minneapolis Center
Fri 08:42:21 AM 45.8758 -98.8592 328° Northwest 228 262 16,100 -49 Level Minneapolis Center
Fri 08:43:22 AM 45.9300 -98.9069 328° Northwest 228 262 16,000 -49 Descending Minneapolis Center
Fri 08:44:24 AM 45.9836 -98.9564 327° Northwest 228 262 16,000  Level Minneapolis Center
Fri 08:45:25 AM 46.0364 -99.0042 328° Northwest 228 262 16,000 -49 Level Minneapolis Center
Fri 08:46:27 AM 46.0906 -99.0542 327° Northwest 227 261 15,900 -49 Descending Minneapolis Center
Fri 08:47:28 AM 46.1419 -99.1044 326° Northwest 227 261 15,900  Level Minneapolis Center
Fri 08:48:30 AM 46.1936 -99.1547 326° Northwest 226 260 15,900  Level Minneapolis Center
Fri 08:49:31 AM 46.2456 -99.2064 325° Northwest 226 260 15,900 49 Level Minneapolis Center
Fri 08:50:33 AM 46.2992 -99.2533 329° Northwest 226 260 16,000  Climbing Minneapolis Center
Fri 08:51:34 AM 46.3589 -99.3092 327° Northwest 225 259 15,900 -49 Descending Minneapolis Center
Fri 08:52:35 AM 46.4094 -99.3600 325° Northwest 225 259 15,900  Level Minneapolis Center
Fri 08:53:37 AM 46.4619 -99.4078 328° Northwest 225 259 15,900  Level Minneapolis Center
Fri 08:54:38 AM 46.5128 -99.4572 326° Northwest 224 258 15,900  Level Minneapolis Center
Fri 08:55:40 AM 46.5650 -99.5061 327° Northwest 224 258 15,900  Level Minneapolis Center
Fri 08:56:41 AM 46.6197 -99.5572 327° Northwest 224 258 15,900  Level Minneapolis Center
Fri 08:57:42 AM 46.6717 -99.6061 327° Northwest 224 258 15,900  Level Minneapolis Center
Fri 08:58:44 AM 46.7242 -99.6553 327° Northwest 224 258 15,900  Level Minneapolis Center
Fri 08:59:45 AM 46.7753 -99.7053 326° Northwest 224 258 15,900 49 Level Minneapolis Center
Fri 09:00:47 AM 46.8356 -99.7683 324° Northwest 223 257 16,000 98 Climbing Minneapolis Center
Fri 09:01:48 AM 46.8850 -99.8192 325° Northwest 222 255 16,100  Climbing Minneapolis Center
Fri 09:02:49 AM 46.9356 -99.8694 326° Northwest 222 255 16,000 -49 Descending Minneapolis Center
Fri 09:03:51 AM 46.9861 -99.9208 325° Northwest 222 255 16,000  Level Minneapolis Center
Fri 09:04:52 AM 47.0367 -99.9714 326° Northwest 221 254 16,000  Level Minneapolis Center
Fri 09:05:54 AM 47.0872 -100.0228 325° Northwest 221 254 16,000  Level Minneapolis Center
Fri 09:06:55 AM 47.1386 -100.0706 328° Northwest 221 254 16,000 49 Level Minneapolis Center
Fri 09:07:56 AM 47.1911 -100.1225 326° Northwest 222 255 16,100 49 Climbing Minneapolis Center
Fri 09:08:58 AM 47.2417 -100.1731 326° Northwest 222 255 16,100  Level Minneapolis Center
Fri 09:09:59 AM 47.3017 -100.2350 325° Northwest 222 255 16,100 -49 Level Minneapolis Center
Fri 09:11:01 AM 47.3525 -100.2872 325° Northwest 222 255 16,000  Descending Minneapolis Center
Fri 09:12:02 AM 47.4039 -100.3378 326° Northwest 222 255 16,100  Climbing Minneapolis Center
Fri 09:13:04 AM 47.4550 -100.3894 326° Northwest 222 255 16,000  Descending Minneapolis Center
Fri 09:14:05 AM 47.5067 -100.4392 327° Northwest 222 255 16,100  Climbing Minneapolis Center
Fri 09:15:06 AM 47.5586 -100.4925 325° Northwest 222 255 16,000 -98 Descending Minneapolis Center
Fri 09:16:08 AM 47.6097 -100.5492 323° Northwest 227 261 15,900 -49 Descending Minneapolis Center
Fri 09:17:09 AM 47.6614 -100.6042 324° Northwest 231 266 15,900 -98 Level Minneapolis Center
Fri 09:18:11 AM 47.7239 -100.6631 328° Northwest 228 262 15,700 -732 Descending Minneapolis Center
Fri 09:19:12 AM 47.7786 -100.7169 327° Northwest 229 264 14,400 -1,561 Descending Minneapolis Center
Fri 09:20:14 AM 47.8408 -100.7736 329° Northwest 245 282 12,500 -1,756 Descending Minneapolis Center
Fri 09:21:15 AM 47.9019 -100.8386 325° Northwest 264 304 10,800 -1,610 Descending Minneapolis Center
Fri 09:22:17 AM 47.9594 -100.8983 325° Northwest 264 304 9,200 -1,548 Descending Minneapolis Center
Fri 09:24:00 AM 48.0272 -101.0317 322° Northwest  Level FlightAware Approximate
Fri 09:31:00 AM 48.2500 -101.2667 90° East  Level FlightAware Approximate
Fri 09:32:00 AM 48.2576 -101.2780 90° East  Level Estimated
Fri 09:33:00 AM 48.2576 -101.2780 90° East  Level Estimated
Fri 09:34:00 AM 48.2576 -101.2780 90° East  Level Estimated
Fri 09:35:00 AM 48.2576 -101.2780 90° East  Level Estimated
Fri 09:36:00 AM 48.2576 -101.2780 90° East  Level Estimated

Login

Don't have an account? Register now (free) for customized features, flight alerts, and more!